createdAt,value
2018-02-09T00:00:58.297Z,37.33
2018-02-09T00:03:25.856Z,34.83
2018-02-09T00:05:53.374Z,34.37
2018-02-09T00:08:20.929Z,35.60
2018-02-09T00:10:48.456Z,34.90
2018-02-09T00:13:15.974Z,33.77
2018-02-09T00:15:43.872Z,36.40
2018-02-09T00:18:11.389Z,34.77
2018-02-09T00:20:38.888Z,36.93
2018-02-09T00:23:06.410Z,32.90
2018-02-09T00:25:33.926Z,33.00
2018-02-09T00:28:01.430Z,35.20
2018-02-09T00:30:28.954Z,35.43
2018-02-09T00:32:56.473Z,36.73
2018-02-09T00:35:23.996Z,36.60
2018-02-09T00:37:51.537Z,32.50
2018-02-09T00:40:19.080Z,32.23
2018-02-09T00:42:46.582Z,34.40
2018-02-09T00:45:14.096Z,36.53
2018-02-09T00:47:41.688Z,35.20
2018-02-09T00:50:09.209Z,35.07
2018-02-09T00:52:36.772Z,32.50
2018-02-09T00:55:04.290Z,34.83
2018-02-09T00:57:31.787Z,35.97
2018-02-09T00:59:59.299Z,31.73
2018-02-09T01:02:26.831Z,33.70
2018-02-09T01:04:54.337Z,33.03
2018-02-09T01:07:21.857Z,33.23
2018-02-09T01:09:49.355Z,33.90
2018-02-09T01:12:16.863Z,26.63
2018-02-09T01:14:44.362Z,34.77
2018-02-09T01:17:11.859Z,30.23
2018-02-09T01:19:40.163Z,36.23
2018-02-09T01:22:07.679Z,34.30
2018-02-09T01:24:35.181Z,30.37
2018-02-09T01:27:02.728Z,32.27
2018-02-09T01:29:30.215Z,30.17
2018-02-09T01:31:57.723Z,32.20
2018-02-09T01:34:25.241Z,31.37
2018-02-09T01:36:52.746Z,32.57
2018-02-09T01:39:21.014Z,31.37
2018-02-09T01:41:48.543Z,33.60
2018-02-09T01:44:16.037Z,32.47
2018-02-09T01:46:44.357Z,29.83
2018-02-09T01:49:11.861Z,31.63
2018-02-09T01:51:39.377Z,33.90
2018-02-09T01:54:06.877Z,30.93
2018-02-09T01:56:34.377Z,30.47
2018-02-09T01:59:01.885Z,30.40
2018-02-09T02:01:29.375Z,29.93
2018-02-09T02:03:56.869Z,28.43
2018-02-09T02:06:24.389Z,29.97
2018-02-09T02:08:51.897Z,30.33
2018-02-09T02:11:20.155Z,29.13
2018-02-09T02:13:47.675Z,31.47
2018-02-09T02:16:15.168Z,29.17
2018-02-09T02:18:42.725Z,29.03
2018-02-09T02:21:10.292Z,30.13
2018-02-09T02:23:37.820Z,27.80
2018-02-09T02:26:05.333Z,28.80
2018-02-09T02:28:32.830Z,28.70
2018-02-09T02:31:00.328Z,29.27
2018-02-09T02:33:27.854Z,30.87
2018-02-09T02:35:55.342Z,30.10
2018-02-09T02:38:22.891Z,28.07
2018-02-09T02:40:51.188Z,28.90
2018-02-09T02:43:18.700Z,26.77
2018-02-09T02:45:46.206Z,25.53
2018-02-09T02:48:14.590Z,27.00
2018-02-09T02:50:42.890Z,27.10
2018-02-09T02:53:10.389Z,27.07
2018-02-09T02:55:37.888Z,27.53
2018-02-09T02:58:06.179Z,29.27
2018-02-09T03:00:33.693Z,28.43
2018-02-09T03:03:01.248Z,28.03
2018-02-09T03:05:28.864Z,24.40
2018-02-09T03:07:56.394Z,27.00
2018-02-09T03:10:24.657Z,27.20
2018-02-09T03:12:52.162Z,27.97
2018-02-09T03:15:19.678Z,29.17
2018-02-09T03:17:47.194Z,27.67
2018-02-09T03:20:14.690Z,28.37
2018-02-09T03:22:42.218Z,26.53
2018-02-09T03:25:09.707Z,26.10
2018-02-09T03:27:37.211Z,25.83
2018-02-09T03:30:04.750Z,25.40
2018-02-09T03:32:33.064Z,30.03
2018-02-09T03:35:00.592Z,26.40
2018-02-09T03:37:28.866Z,25.30
2018-02-09T03:39:56.439Z,28.33
2018-02-09T03:42:23.945Z,28.03
2018-02-09T03:44:51.509Z,28.53
2018-02-09T03:47:19.008Z,26.17
2018-02-09T03:49:47.297Z,25.60
2018-02-09T03:52:14.819Z,27.10
2018-02-09T03:54:42.328Z,24.77
2018-02-09T03:57:09.868Z,24.17
2018-02-09T03:59:38.138Z,26.90
2018-02-09T04:02:05.649Z,25.40
2018-02-09T04:04:33.168Z,25.20
2018-02-09T04:07:01.443Z,24.93
2018-02-09T04:09:28.947Z,25.37
2018-02-09T04:11:56.472Z,26.80
2018-02-09T04:14:23.988Z,25.73
2018-02-09T04:16:51.510Z,23.43
2018-02-09T04:19:19.036Z,26.83
2018-02-09T04:21:46.588Z,24.67
2018-02-09T04:24:14.351Z,24.43
2018-02-09T04:26:41.834Z,23.00
2018-02-09T04:29:10.109Z,22.87
2018-02-09T04:31:37.679Z,24.33
2018-02-09T04:34:05.943Z,22.00
2018-02-09T04:36:33.471Z,22.43
2018-02-09T04:39:00.975Z,23.73
2018-02-09T04:41:29.239Z,24.63
2018-02-09T04:43:56.761Z,22.60
2018-02-09T04:46:25.146Z,22.33
2018-02-09T04:48:52.695Z,21.73
2018-02-09T04:51:20.216Z,21.83
2018-02-09T04:53:47.713Z,20.43
2018-02-09T04:56:15.219Z,19.67
2018-02-09T04:58:42.739Z,21.50
2018-02-09T05:01:10.246Z,19.33
2018-02-09T05:03:38.525Z,22.07
2018-02-09T05:06:06.080Z,19.73
2018-02-09T05:08:34.348Z,18.27
2018-02-09T05:11:03.404Z,19.67
2018-02-09T05:13:30.902Z,20.23
2018-02-09T05:15:58.420Z,18.27
2018-02-09T05:18:25.948Z,17.40
2018-02-09T05:20:53.458Z,18.73
2018-02-09T05:23:20.982Z,17.23
2018-02-09T05:25:48.490Z,17.77
2018-02-09T05:28:16.004Z,15.67
2018-02-09T05:30:44.286Z,17.40
2018-02-09T05:33:11.814Z,15.77
2018-02-09T05:35:39.346Z,16.40
2018-02-09T05:38:06.866Z,17.63
2018-02-09T05:40:34.428Z,15.03
2018-02-09T05:43:01.928Z,16.67
2018-02-09T05:45:29.521Z,17.27
2018-02-09T05:47:57.039Z,16.43
2018-02-09T05:50:24.536Z,16.03
2018-02-09T05:52:52.085Z,17.20
2018-02-09T05:55:19.600Z,15.33
2018-02-09T05:57:47.124Z,17.93
2018-02-09T06:00:15.381Z,16.57
2018-02-09T06:02:42.893Z,16.90
2018-02-09T06:05:10.388Z,17.80
2018-02-09T06:07:37.891Z,17.07
2018-02-09T06:10:05.420Z,20.50
2018-02-09T06:12:32.909Z,16.33
2018-02-09T06:15:00.418Z,17.87
2018-02-09T06:17:27.924Z,17.40
2018-02-09T06:19:55.487Z,16.60
2018-02-09T06:22:22.983Z,17.80
2018-02-09T06:24:50.497Z,19.93
2018-02-09T06:27:17.994Z,20.13
2018-02-09T06:29:45.500Z,19.50
2018-02-09T06:32:13.023Z,19.13
2018-02-09T06:34:40.524Z,19.40
2018-02-09T06:37:08.047Z,22.47
2018-02-09T06:39:35.547Z,22.80
2018-02-09T06:42:03.073Z,22.50
2018-02-09T06:44:30.570Z,23.70
2018-02-09T06:46:59.203Z,24.37
2018-02-09T06:49:26.717Z,23.20
2018-02-09T06:51:55.174Z,21.87
2018-02-09T06:54:22.674Z,25.80
2018-02-09T06:56:50.199Z,27.27
2018-02-09T06:59:17.685Z,27.10
2018-02-09T07:01:45.199Z,27.97
2018-02-09T07:04:12.714Z,27.83
2018-02-09T07:06:40.251Z,30.33
2018-02-09T07:09:07.839Z,28.63
2018-02-09T07:11:36.105Z,31.80
2018-02-09T07:14:03.633Z,30.03
2018-02-09T07:16:31.163Z,30.30
2018-02-09T07:18:58.692Z,32.43
2018-02-09T07:21:26.186Z,31.67
2018-02-09T07:23:53.707Z,32.70
2018-02-09T07:26:21.967Z,34.90
2018-02-09T07:28:49.472Z,36.97
2018-02-09T07:31:17.009Z,34.27
2018-02-09T07:33:44.532Z,36.33
2018-02-09T07:36:12.067Z,35.43
2018-02-09T07:38:39.572Z,38.33
2018-02-09T07:41:07.824Z,37.53
2018-02-09T07:43:35.339Z,37.87
2018-02-09T07:46:02.928Z,38.07
2018-02-09T07:48:30.425Z,37.97
2018-02-09T07:50:57.941Z,37.27
2018-02-09T07:53:25.461Z,39.63
2018-02-09T07:55:52.957Z,39.37
2018-02-09T07:58:20.532Z,41.87
2018-02-09T08:00:48.038Z,41.40
2018-02-09T08:03:15.566Z,41.87
2018-02-09T08:05:43.082Z,40.73
2018-02-09T08:08:10.590Z,39.53
2018-02-09T08:10:38.113Z,42.37
2018-02-09T08:13:05.611Z,43.50
2018-02-09T08:15:33.532Z,42.17
2018-02-09T08:18:01.059Z,42.53
2018-02-09T08:20:29.318Z,43.97
2018-02-09T08:22:56.841Z,43.23
2018-02-09T08:25:24.364Z,43.07
2018-02-09T08:27:52.640Z,42.50
2018-02-09T08:30:20.136Z,45.30
2018-02-09T08:32:47.719Z,45.03
2018-02-09T08:35:15.214Z,42.80
2018-02-09T08:37:42.710Z,48.63
2018-02-09T08:40:10.224Z,41.10
2018-02-09T08:42:37.714Z,44.97
2018-02-09T08:45:05.250Z,46.90
2018-02-09T08:47:33.529Z,45.57
2018-02-09T08:50:01.037Z,46.87
2018-02-09T08:52:28.556Z,49.10
2018-02-09T08:54:56.831Z,45.50
2018-02-09T08:57:24.922Z,44.17
2018-02-09T08:59:52.419Z,45.50
2018-02-09T09:02:19.911Z,44.13
2018-02-09T09:04:47.428Z,44.17
2018-02-09T09:07:14.932Z,48.50
2018-02-09T09:09:42.454Z,42.40
2018-02-09T09:12:09.964Z,43.80
2018-02-09T09:14:37.484Z,44.50
2018-02-09T09:17:05.016Z,44.30
2018-02-09T09:19:32.523Z,43.00
2018-02-09T09:22:00.033Z,42.87
2018-02-09T09:24:27.568Z,45.43
2018-02-09T09:26:55.069Z,45.67
2018-02-09T09:29:22.574Z,45.07
2018-02-09T09:31:50.903Z,44.37
2018-02-09T09:34:18.427Z,46.47
2018-02-09T09:36:45.951Z,44.57
2018-02-09T09:39:13.471Z,47.67
2018-02-09T09:41:41.037Z,46.03
2018-02-09T09:44:08.537Z,47.57
2018-02-09T09:46:36.048Z,45.97
2018-02-09T09:49:03.582Z,51.73
2018-02-09T09:51:31.847Z,42.50
2018-02-09T09:53:59.374Z,46.97
2018-02-09T09:56:26.892Z,48.20
2018-02-09T09:58:54.378Z,50.97
2018-02-09T10:01:27.443Z,47.87
2018-02-09T10:03:54.952Z,49.50
2018-02-09T10:06:22.451Z,50.10
2018-02-09T10:08:50.744Z,49.90
2018-02-09T10:11:18.242Z,49.77
2018-02-09T10:13:45.734Z,50.40
2018-02-09T10:16:13.240Z,43.87
2018-02-09T10:18:40.754Z,49.70
2018-02-09T10:21:08.240Z,50.80
2018-02-09T10:23:35.756Z,50.97
2018-02-09T10:26:03.289Z,49.40
2018-02-09T10:28:30.804Z,49.27
2018-02-09T10:30:59.082Z,49.03
2018-02-09T10:33:26.610Z,51.77
2018-02-09T10:35:54.100Z,50.80
2018-02-09T10:38:21.807Z,50.03
2018-02-09T10:40:49.331Z,50.27
2018-02-09T10:43:17.603Z,48.20
2018-02-09T10:45:45.098Z,49.77
2018-02-09T10:48:12.617Z,50.10
2018-02-09T10:50:40.888Z,50.83
2018-02-09T10:53:08.403Z,48.40
2018-02-09T10:55:35.909Z,48.00
2018-02-09T10:58:03.395Z,46.77
2018-02-09T11:00:36.463Z,46.53
2018-02-09T11:03:03.997Z,44.53
2018-02-09T11:05:31.498Z,43.53
2018-02-09T11:07:58.988Z,43.17
2018-02-09T11:10:32.182Z,45.80
2018-02-09T11:12:59.670Z,41.83
2018-02-09T11:15:27.167Z,44.87
2018-02-09T11:17:54.696Z,43.47
2018-02-09T11:20:22.187Z,45.17
2018-02-09T11:22:50.458Z,45.83
2018-02-09T11:25:17.966Z,43.40
2018-02-09T11:27:45.487Z,44.10
2018-02-09T11:30:12.988Z,40.47
2018-02-09T11:32:40.497Z,44.23
2018-02-09T11:35:08.019Z,43.10
2018-02-09T11:37:36.303Z,41.30
2018-02-09T11:40:03.791Z,43.77
2018-02-09T11:42:32.080Z,40.73
2018-02-09T11:45:00.345Z,43.93
2018-02-09T11:47:27.862Z,43.77
2018-02-09T11:49:55.369Z,44.60
2018-02-09T11:52:23.621Z,42.43
2018-02-09T11:54:51.140Z,43.33
2018-02-09T11:57:18.691Z,41.00
2018-02-09T11:59:46.196Z,42.53
2018-02-09T12:02:13.719Z,40.93
2018-02-09T12:04:41.221Z,36.73
2018-02-09T12:07:08.741Z,40.43
2018-02-09T12:09:36.245Z,43.20
2018-02-09T12:12:03.742Z,39.60
2018-02-09T12:14:31.255Z,41.43
2018-02-09T12:16:58.745Z,40.10
2018-02-09T12:19:26.249Z,39.93
2018-02-09T12:21:53.793Z,39.33
2018-02-09T12:24:21.322Z,37.93
2018-02-09T12:26:49.588Z,38.37
2018-02-09T12:29:17.096Z,40.37
2018-02-09T12:31:44.627Z,37.87
2018-02-09T12:34:12.930Z,38.80
2018-02-09T12:36:40.429Z,39.20
2018-02-09T12:39:07.989Z,41.37
2018-02-09T12:41:35.479Z,39.83
2018-02-09T12:44:02.978Z,39.67
2018-02-09T12:46:30.480Z,38.83
2018-02-09T12:48:57.995Z,36.77
2018-02-09T12:51:25.556Z,40.20
2018-02-09T12:53:53.118Z,36.53
2018-02-09T12:56:20.620Z,38.23
2018-02-09T12:58:48.146Z,36.53
2018-02-09T13:01:15.632Z,39.87
2018-02-09T13:03:44.036Z,44.13
2018-02-09T13:06:12.347Z,41.87
2018-02-09T13:08:39.843Z,39.63
2018-02-09T13:11:07.358Z,38.23
2018-02-09T13:13:35.653Z,35.80
2018-02-09T13:16:03.182Z,36.27
2018-02-09T13:18:43.353Z,36.43
2018-02-09T13:21:10.868Z,34.07
2018-02-09T13:23:50.130Z,34.67
2018-02-09T13:26:18.413Z,35.17
2018-02-09T13:28:59.668Z,37.17
2018-02-09T13:31:27.185Z,35.90
2018-02-09T13:33:54.675Z,33.73
2018-02-09T13:36:34.020Z,34.17
2018-02-09T13:39:01.601Z,33.93
2018-02-09T13:41:29.069Z,33.53
2018-02-09T13:43:57.325Z,30.87
2018-02-09T13:46:24.840Z,31.03
2018-02-09T13:48:52.334Z,31.63
2018-02-09T13:51:19.836Z,32.13
2018-02-09T13:53:48.195Z,30.83
2018-02-09T13:56:15.682Z,30.87
2018-02-09T13:58:43.182Z,31.90
2018-02-09T14:01:10.696Z,31.97
2018-02-09T14:03:38.231Z,30.87
2018-02-09T14:06:05.717Z,29.37
2018-02-09T14:08:33.243Z,31.53
2018-02-09T14:11:00.743Z,31.13
2018-02-09T14:13:28.274Z,31.17
2018-02-09T14:15:55.799Z,32.00
2018-02-09T14:18:23.309Z,32.13
2018-02-09T14:20:50.818Z,36.27
2018-02-09T14:23:18.338Z,27.80
2018-02-09T14:25:46.598Z,30.83
2018-02-09T14:28:14.086Z,30.43
2018-02-09T14:30:41.616Z,31.43
2018-02-09T14:33:09.871Z,29.77
2018-02-09T14:35:37.378Z,30.40
2018-02-09T14:38:04.906Z,30.00
2018-02-09T14:40:32.398Z,26.83
2018-02-09T14:42:59.902Z,28.77
2018-02-09T14:45:27.406Z,27.23
2018-02-09T14:47:54.923Z,27.10
2018-02-09T14:50:22.444Z,27.03
2018-02-09T14:52:49.957Z,28.43
2018-02-09T14:55:17.457Z,25.03
2018-02-09T14:57:44.969Z,23.40
2018-02-09T15:00:12.520Z,22.97
2018-02-09T15:02:40.017Z,28.20
2018-02-09T15:05:07.527Z,28.23
2018-02-09T15:07:35.030Z,26.43
2018-02-09T15:10:03.315Z,26.93
2018-02-09T15:12:30.891Z,23.70
2018-02-09T15:14:58.387Z,26.97
2018-02-09T15:17:25.897Z,24.60
2018-02-09T15:19:54.180Z,23.50
2018-02-09T15:22:22.439Z,24.13
2018-02-09T15:24:49.929Z,22.37
2018-02-09T15:27:17.445Z,22.70
2018-02-09T15:29:44.937Z,21.83
2018-02-09T15:32:13.198Z,25.03
2018-02-09T15:34:40.800Z,24.23
2018-02-09T15:37:08.306Z,23.17
2018-02-09T15:39:35.832Z,25.07
2018-02-09T15:42:03.351Z,23.37
2018-02-09T15:44:30.841Z,23.70
2018-02-09T15:46:58.331Z,23.83
2018-02-09T15:49:25.864Z,21.80
2018-02-09T15:51:53.458Z,22.23
2018-02-09T15:54:20.979Z,20.60
2018-02-09T15:56:48.483Z,21.20
2018-02-09T15:59:15.976Z,22.43
2018-02-09T16:01:44.248Z,19.93
2018-02-09T16:04:11.766Z,23.13
2018-02-09T16:06:39.260Z,20.67
2018-02-09T16:09:07.539Z,21.07
2018-02-09T16:11:35.060Z,21.80
2018-02-09T16:14:02.603Z,25.60
2018-02-09T16:16:30.125Z,22.37
2018-02-09T16:18:58.396Z,20.43
2018-02-09T16:21:26.677Z,22.03
2018-02-09T16:23:54.204Z,22.23
2018-02-09T16:26:21.708Z,24.03
2018-02-09T16:28:49.986Z,21.20
2018-02-09T16:31:17.488Z,24.13
2018-02-09T16:33:45.030Z,24.43
2018-02-09T16:36:12.610Z,23.90
2018-02-09T16:38:40.174Z,22.00
2018-02-09T16:41:07.672Z,23.10
2018-02-09T16:43:35.941Z,24.33
2018-02-09T16:46:03.458Z,24.33
2018-02-09T16:48:30.944Z,22.43
2018-02-09T16:50:58.495Z,23.57
2018-02-09T16:53:25.998Z,24.03
2018-02-09T16:55:54.282Z,24.73
2018-02-09T16:58:22.542Z,23.37
2018-02-09T17:00:50.044Z,23.57
2018-02-09T17:03:17.549Z,22.33
2018-02-09T17:05:45.039Z,26.40
2018-02-09T17:08:13.308Z,25.37
2018-02-09T17:10:40.846Z,25.37
2018-02-09T17:13:08.343Z,26.57
2018-02-09T17:15:35.868Z,22.60
2018-02-09T17:18:03.380Z,25.07
2018-02-09T17:20:30.879Z,23.47
2018-02-09T17:22:58.452Z,25.23
2018-02-09T17:25:25.959Z,23.30
2018-02-09T17:27:53.507Z,23.23
2018-02-09T17:30:21.034Z,24.97
2018-02-09T17:32:48.527Z,26.70
2018-02-09T17:35:16.076Z,26.03
2018-02-09T17:37:44.361Z,26.57
2018-02-09T17:40:11.907Z,24.60
2018-02-09T17:42:40.195Z,27.93
2018-02-09T17:45:07.690Z,29.07
2018-02-09T17:47:35.243Z,26.60
2018-02-09T17:50:03.503Z,28.83
2018-02-09T17:52:31.115Z,26.93
2018-02-09T17:54:58.711Z,26.10
2018-02-09T17:57:27.141Z,26.97
2018-02-09T17:59:54.684Z,23.37
2018-02-09T18:02:22.909Z,25.30
2018-02-09T18:04:50.430Z,26.90
2018-02-09T18:07:17.918Z,24.80
2018-02-09T18:09:45.625Z,26.73
2018-02-09T18:12:13.158Z,27.10
2018-02-09T18:14:40.710Z,25.97
2018-02-09T18:17:08.248Z,26.73
2018-02-09T18:19:35.750Z,27.30
2018-02-09T18:22:03.354Z,25.80
2018-02-09T18:24:30.976Z,29.67
2018-02-09T18:26:58.475Z,26.47
2018-02-09T18:29:25.982Z,26.13
2018-02-09T18:31:53.538Z,26.87
2018-02-09T18:34:21.071Z,29.17
2018-02-09T18:36:48.592Z,29.40
2018-02-09T18:39:16.125Z,28.73
2018-02-09T18:41:43.616Z,28.63
2018-02-09T18:44:11.124Z,26.17
2018-02-09T18:46:38.628Z,27.17
2018-02-09T18:49:06.892Z,27.37
2018-02-09T18:51:35.184Z,29.13
2018-02-09T18:54:02.728Z,28.23
2018-02-09T18:56:31.038Z,28.13
2018-02-09T18:58:58.625Z,26.17
2018-02-09T19:01:26.168Z,30.00
2018-02-09T19:03:53.667Z,27.40
2018-02-09T19:06:21.162Z,28.27
2018-02-09T19:08:48.694Z,28.47
2018-02-09T19:11:16.217Z,29.10
2018-02-09T19:13:43.723Z,28.80
2018-02-09T19:16:11.245Z,29.93
2018-02-09T19:18:38.768Z,28.70
2018-02-09T19:21:06.260Z,30.10
2018-02-09T19:23:33.752Z,28.77
2018-02-09T19:26:01.281Z,31.33
2018-02-09T19:28:28.793Z,30.00
2018-02-09T19:30:56.287Z,28.20
2018-02-09T19:33:23.815Z,28.40
2018-02-09T19:35:51.347Z,29.97
2018-02-09T19:38:19.135Z,28.00
2018-02-09T19:40:47.397Z,29.90
2018-02-09T19:43:14.918Z,28.33
2018-02-09T19:45:42.455Z,28.93
2018-02-09T19:48:10.033Z,28.30
2018-02-09T19:50:37.542Z,32.93
2018-02-09T19:53:05.047Z,29.27
2018-02-09T19:55:32.543Z,28.50
2018-02-09T19:58:00.051Z,30.30
2018-02-09T20:00:27.658Z,30.03
2018-02-09T20:02:55.154Z,29.97
2018-02-09T20:05:22.737Z,28.90
2018-02-09T20:07:51.031Z,29.23
2018-02-09T20:10:18.555Z,28.67
2018-02-09T20:12:46.868Z,30.27
2018-02-09T20:15:14.396Z,28.73
2018-02-09T20:17:42.747Z,29.97
2018-02-09T20:20:10.307Z,29.03
2018-02-09T20:22:37.839Z,27.83
2018-02-09T20:25:05.366Z,27.47
2018-02-09T20:27:33.018Z,28.37
2018-02-09T20:30:01.355Z,30.87
2018-02-09T20:32:28.912Z,27.53
2018-02-09T20:34:56.494Z,29.63
2018-02-09T20:37:24.218Z,26.93
2018-02-09T20:39:51.867Z,26.13
2018-02-09T20:42:19.443Z,27.90
2018-02-09T20:44:47.146Z,26.33
2018-02-09T20:47:14.716Z,25.43
2018-02-09T20:49:42.343Z,26.27
2018-02-09T20:52:09.947Z,27.13
2018-02-09T20:54:37.524Z,24.43
2018-02-09T20:57:05.032Z,23.83
2018-02-09T20:59:32.663Z,25.83
2018-02-09T21:02:00.942Z,27.63
2018-02-09T21:04:28.474Z,27.77
2018-02-09T21:06:55.999Z,26.87
2018-02-09T21:09:23.703Z,25.13
2018-02-09T21:11:52.029Z,25.83
2018-02-09T21:14:19.742Z,25.07
2018-02-09T21:16:49.074Z,24.40
2018-02-09T21:19:16.595Z,24.97
2018-02-09T21:21:44.213Z,22.10
2018-02-09T21:24:11.733Z,24.23
2018-02-09T21:26:39.388Z,24.20
2018-02-09T21:29:06.998Z,26.10
2018-02-09T21:31:34.506Z,41.63
2018-02-09T21:34:02.070Z,26.47
2018-02-09T21:36:29.631Z,24.07
2018-02-09T21:38:57.148Z,24.17
2018-02-09T21:41:24.748Z,25.83
2018-02-09T21:43:52.373Z,23.30
2018-02-09T21:46:20.032Z,27.60
2018-02-09T21:48:47.588Z,27.37
2018-02-09T21:51:15.199Z,29.40
2018-02-09T21:53:42.748Z,26.40
2018-02-09T21:56:10.350Z,27.97
2018-02-09T21:58:37.885Z,27.10
2018-02-09T22:01:05.392Z,32.03
2018-02-09T22:03:34.207Z,33.83
2018-02-09T22:06:01.725Z,31.67
2018-02-09T22:08:29.267Z,28.63
2018-02-09T22:10:56.969Z,26.93
2018-02-09T22:13:24.735Z,26.63
2018-02-09T22:15:52.278Z,27.17
2018-02-09T22:18:19.894Z,31.10
2018-02-09T22:20:47.512Z,29.50
2018-02-09T22:23:15.128Z,28.30
2018-02-09T22:25:42.872Z,29.07
2018-02-09T22:28:10.422Z,30.87
2018-02-09T22:30:37.955Z,34.30
2018-02-09T22:33:05.538Z,30.30
2018-02-09T22:35:33.049Z,32.17
2018-02-09T22:38:00.557Z,35.60
2018-02-09T22:40:28.079Z,35.17
2018-02-09T22:42:56.360Z,36.30
2018-02-09T22:45:24.708Z,34.27
2018-02-09T22:47:52.229Z,36.10
2018-02-09T22:50:19.747Z,38.33
2018-02-09T22:52:47.270Z,39.63
2018-02-09T22:55:14.768Z,35.90
2018-02-09T22:57:43.204Z,39.00
2018-02-09T23:00:10.884Z,39.10
2018-02-09T23:02:38.523Z,41.37
2018-02-09T23:05:06.130Z,38.57
2018-02-09T23:07:33.619Z,35.50
2018-02-09T23:10:01.546Z,41.53
2018-02-09T23:12:29.282Z,37.93
2018-02-09T23:14:56.768Z,41.83
2018-02-09T23:17:24.457Z,44.87
2018-02-09T23:19:52.019Z,41.37
2018-02-09T23:22:19.829Z,42.93
2018-02-09T23:24:47.410Z,43.70
2018-02-09T23:27:14.937Z,41.40
2018-02-09T23:29:42.428Z,41.33
2018-02-09T23:32:09.936Z,45.27
2018-02-09T23:34:37.448Z,42.23
2018-02-09T23:37:04.969Z,40.67
2018-02-09T23:39:32.544Z,42.90
2018-02-09T23:42:00.780Z,40.23
2018-02-09T23:44:28.293Z,39.97
2018-02-09T23:46:55.822Z,45.20
2018-02-09T23:49:23.348Z,43.17
2018-02-09T23:51:50.869Z,42.63
2018-02-09T23:54:18.429Z,47.43
2018-02-09T23:56:45.999Z,47.90
2018-02-09T23:59:13.619Z,47.17
